createdAt,value
2023-02-27T07:11:14.812Z,3.10
2023-02-27T07:13:42.150Z,3.08
2023-02-27T07:16:09.241Z,3.10
2023-02-27T07:18:36.266Z,3.33
2023-02-27T07:21:03.473Z,3.25
2023-02-27T07:23:30.498Z,2.90
2023-02-27T07:25:57.466Z,3.08
2023-02-27T07:28:24.466Z,3.38
2023-02-27T07:30:54.408Z,3.60
2023-02-27T07:33:23.929Z,3.17
2023-02-27T07:35:51.058Z,3.50
2023-02-27T07:38:19.059Z,3.40
2023-02-27T07:40:47.073Z,3.30
2023-02-27T07:43:14.291Z,3.60
2023-02-27T07:45:42.717Z,5.25
2023-02-27T07:48:10.629Z,4.47
2023-02-27T07:50:37.932Z,8.43
2023-02-27T07:53:07.749Z,11.80
2023-02-27T07:55:34.773Z,11.82
2023-02-27T07:58:01.980Z,11.40
2023-02-27T08:00:29.552Z,15.50
2023-02-27T08:02:56.706Z,13.43
2023-02-27T08:05:23.779Z,16.50
2023-02-27T08:07:51.790Z,16.35
2023-02-27T08:10:18.939Z,12.50
2023-02-27T08:12:45.951Z,16.13
2023-02-27T08:15:13.240Z,15.60
2023-02-27T08:17:40.300Z,15.13
2023-02-27T08:20:07.833Z,15.57
2023-02-27T08:22:34.858Z,15.65
2023-02-27T08:25:02.188Z,13.67
2023-02-27T08:27:29.244Z,16.63
2023-02-27T08:29:56.334Z,16.00
2023-02-27T08:32:24.003Z,15.70
2023-02-27T08:34:51.460Z,14.48
2023-02-27T08:37:22.059Z,15.05
2023-02-27T08:39:51.430Z,14.88
2023-02-27T08:42:18.444Z,15.73
2023-02-27T08:44:46.512Z,15.30
2023-02-27T08:47:13.585Z,14.90
2023-02-27T08:49:40.560Z,14.05
2023-02-27T08:52:09.756Z,14.32
2023-02-27T08:54:37.393Z,14.25
2023-02-27T08:57:05.993Z,14.25
2023-02-27T08:59:33.316Z,15.20
2023-02-27T09:02:00.310Z,14.85
2023-02-27T09:04:27.387Z,13.15
2023-02-27T09:06:54.458Z,11.20
2023-02-27T09:09:40.040Z,9.57
2023-02-27T09:12:07.122Z,10.30
2023-02-27T09:14:34.150Z,7.80
2023-02-27T09:17:01.185Z,8.00
2023-02-27T09:19:28.218Z,6.90
2023-02-27T09:21:55.314Z,6.95
2023-02-27T09:24:22.581Z,6.05
2023-02-27T09:26:50.168Z,6.03
2023-02-27T09:29:17.416Z,5.45
2023-02-27T09:31:45.850Z,5.57
2023-02-27T09:34:13.148Z,5.43
2023-02-27T09:36:40.237Z,5.93
2023-02-27T09:39:09.619Z,6.38
2023-02-27T09:41:41.175Z,6.70
2023-02-27T09:44:39.844Z,6.25
2023-02-27T09:47:16.089Z,6.20
2023-02-27T09:50:00.560Z,6.90
2023-02-27T09:52:30.511Z,6.95
2023-02-27T09:54:57.598Z,6.53
2023-02-27T09:57:30.293Z,5.43
2023-02-27T10:00:07.892Z,5.40
2023-02-27T10:03:07.683Z,5.43
2023-02-27T10:05:43.698Z,4.32
2023-02-27T10:08:18.016Z,3.67
2023-02-27T10:11:00.119Z,3.63
2023-02-27T10:13:46.177Z,3.78
2023-02-27T10:16:15.576Z,3.95
2023-02-27T10:18:51.546Z,4.68
2023-02-27T10:21:21.519Z,4.88
2023-02-27T10:23:58.478Z,4.72
2023-02-27T10:26:30.806Z,4.63
2023-02-27T10:28:59.099Z,3.95
2023-02-27T10:31:29.275Z,4.35
2023-02-27T10:33:57.527Z,4.35
2023-02-27T10:36:33.691Z,4.28
2023-02-27T10:39:05.987Z,4.53
2023-02-27T10:41:33.514Z,4.77
2023-02-27T10:44:00.933Z,4.18
2023-02-27T10:46:30.282Z,4.20
2023-02-27T10:49:00.081Z,4.53
2023-02-27T10:51:46.987Z,4.03
2023-02-27T10:54:17.042Z,4.70
2023-02-27T10:56:46.176Z,4.15
2023-02-27T10:59:21.309Z,4.78
2023-02-27T11:01:50.488Z,4.40
2023-02-27T11:04:24.729Z,4.50
2023-02-27T11:06:53.558Z,3.95
2023-02-27T11:09:22.391Z,4.20
2023-02-27T11:11:50.149Z,4.22
2023-02-27T11:17:48.301Z,4.40
2023-02-27T11:20:30.727Z,4.28
2023-02-27T11:23:24.142Z,4.55
2023-02-27T11:25:51.236Z,4.60
2023-02-27T11:28:28.026Z,4.75
2023-02-27T11:31:00.998Z,3.80
2023-02-27T11:33:32.299Z,4.68
2023-02-27T11:35:59.851Z,4.40
2023-02-27T11:38:29.168Z,4.30
2023-02-27T11:40:56.280Z,4.30
2023-02-27T11:43:28.564Z,4.90
2023-02-27T11:46:39.409Z,4.25
2023-02-27T11:49:21.455Z,3.97
2023-02-27T11:51:56.987Z,4.20
2023-02-27T11:54:32.341Z,4.10
2023-02-27T11:57:04.595Z,4.38
2023-02-27T11:59:45.225Z,3.63
2023-02-27T12:02:15.444Z,3.28
2023-02-27T12:04:49.972Z,3.28
2023-02-27T12:07:21.985Z,2.80
2023-02-27T12:09:57.775Z,2.30
2023-02-27T12:12:27.102Z,1.88
2023-02-27T12:15:20.238Z,2.20
2023-02-27T12:18:12.538Z,2.38
2023-02-27T12:20:55.698Z,2.30
2023-02-27T12:23:32.647Z,2.45
2023-02-27T12:26:06.498Z,2.50
2023-02-27T12:28:39.366Z,2.50
2023-02-27T12:31:18.104Z,2.40
2023-02-27T12:33:53.382Z,2.40
2023-02-27T12:36:20.498Z,2.45
2023-02-27T12:38:48.821Z,2.80
2023-02-27T12:41:33.308Z,2.63
2023-02-27T12:44:11.680Z,2.45
2023-02-27T12:46:42.766Z,2.60
2023-02-27T12:49:28.569Z,2.50
2023-02-27T12:52:14.688Z,2.60
2023-02-27T12:54:55.191Z,2.70
2023-02-27T12:57:25.243Z,2.60
2023-02-27T13:00:11.270Z,2.58
2023-02-27T13:03:13.587Z,2.60
2023-02-27T13:06:01.485Z,2.60
2023-02-27T13:08:49.072Z,2.92
2023-02-27T13:11:21.568Z,2.78
2023-02-27T13:13:51.542Z,2.58
2023-02-27T13:16:41.436Z,2.50
2023-02-27T13:19:27.272Z,2.78
2023-02-27T13:22:09.595Z,2.65
2023-02-27T13:24:37.936Z,2.70
2023-02-27T13:27:13.506Z,2.97
2023-02-27T13:29:47.342Z,2.90
2023-02-27T13:32:21.622Z,2.50
2023-02-27T13:34:56.112Z,2.80
2023-02-27T13:37:23.260Z,3.10
2023-02-27T13:39:56.063Z,2.85
2023-02-27T13:42:30.442Z,2.97
2023-02-27T13:45:02.069Z,3.30
2023-02-27T13:47:31.934Z,2.70
2023-02-27T13:50:02.671Z,3.35
2023-02-27T13:52:31.339Z,2.73
2023-02-27T13:55:06.249Z,3.08
2023-02-27T13:57:38.763Z,2.77
2023-02-27T14:00:09.262Z,2.90
2023-02-27T14:02:56.444Z,3.20
2023-02-27T14:05:28.340Z,3.30
2023-02-27T14:08:22.932Z,3.20
2023-02-27T14:10:53.129Z,3.35
2023-02-27T14:13:39.077Z,3.75
2023-02-27T14:16:07.481Z,3.58
2023-02-27T14:18:52.540Z,3.80
2023-02-27T14:21:38.544Z,3.80
2023-02-27T14:24:05.735Z,3.70
2023-02-27T14:26:34.096Z,3.72
2023-02-27T14:29:01.629Z,3.78
2023-02-27T14:31:32.180Z,3.50
2023-02-27T14:34:05.096Z,3.60
2023-02-27T14:36:34.519Z,3.20
